createdAt,value
2017-07-22T00:01:49.687Z,11.87
2017-07-22T00:04:16.377Z,9.97
2017-07-22T00:06:42.325Z,13.13
2017-07-22T00:09:08.257Z,10.77
2017-07-22T00:11:34.188Z,17.23
2017-07-22T00:14:00.178Z,12.00
2017-07-22T00:16:26.162Z,12.10
2017-07-22T00:18:52.854Z,20.73
2017-07-22T00:21:18.788Z,19.70
2017-07-22T00:23:44.729Z,14.93
2017-07-22T00:26:10.651Z,22.83
2017-07-22T00:28:36.645Z,15.53
2017-07-22T00:31:02.574Z,17.53
2017-07-22T00:33:28.516Z,20.53
2017-07-22T00:35:54.488Z,17.93
2017-07-22T00:38:21.155Z,22.80
2017-07-22T00:40:47.072Z,18.30
2017-07-22T00:43:13.802Z,23.43
2017-07-22T00:45:39.784Z,21.90
2017-07-22T00:48:05.762Z,19.43
2017-07-22T00:50:32.454Z,17.23
2017-07-22T00:52:58.393Z,18.50
2017-07-22T00:55:24.333Z,15.67
2017-07-22T00:57:50.230Z,13.80
2017-07-22T01:00:16.191Z,15.13
2017-07-22T01:02:42.122Z,16.00
2017-07-22T01:05:08.092Z,14.50
2017-07-22T01:07:34.005Z,15.93
2017-07-22T01:10:00.693Z,18.43
2017-07-22T01:12:26.625Z,16.10
2017-07-22T01:14:52.563Z,17.13
2017-07-22T01:17:18.523Z,19.20
2017-07-22T01:19:45.243Z,15.37
2017-07-22T01:22:11.240Z,19.53
2017-07-22T01:24:37.171Z,21.40
2017-07-22T01:27:03.151Z,14.57
2017-07-22T01:29:29.072Z,17.67
2017-07-22T01:31:55.081Z,25.30
2017-07-22T01:34:21.000Z,19.90
2017-07-22T01:36:47.018Z,14.07
2017-07-22T01:39:12.978Z,27.17
2017-07-22T01:41:38.985Z,18.20
2017-07-22T01:44:04.932Z,16.53
2017-07-22T01:46:30.927Z,21.37
2017-07-22T01:48:56.837Z,27.40
2017-07-22T01:51:22.818Z,23.57
2017-07-22T01:53:48.758Z,22.50
2017-07-22T01:56:14.699Z,23.80
2017-07-22T01:58:40.642Z,22.13
2017-07-22T02:01:07.351Z,31.03
2017-07-22T02:03:33.300Z,24.77
2017-07-22T02:05:59.237Z,21.30
2017-07-22T02:08:25.182Z,25.73
2017-07-22T02:10:51.139Z,25.63
2017-07-22T02:13:17.088Z,24.80
2017-07-22T02:15:43.117Z,19.87
2017-07-22T02:18:09.993Z,27.40
2017-07-22T02:20:35.964Z,26.00
2017-07-22T02:23:01.923Z,24.63
2017-07-22T02:25:28.637Z,25.10
2017-07-22T02:27:54.581Z,32.23
2017-07-22T02:30:20.510Z,25.67
2017-07-22T02:32:46.452Z,27.67
2017-07-22T02:35:12.371Z,27.13
2017-07-22T02:37:38.277Z,38.17
2017-07-22T02:40:04.204Z,32.73
2017-07-22T02:42:30.141Z,33.33
2017-07-22T02:44:56.082Z,45.13
2017-07-22T02:47:22.037Z,38.60
2017-07-22T02:49:48.704Z,36.23
2017-07-22T02:52:14.637Z,30.80
2017-07-22T02:54:40.552Z,27.50
2017-07-22T02:57:06.470Z,21.93
2017-07-22T02:59:32.409Z,24.07
2017-07-22T03:01:58.350Z,26.63
2017-07-22T03:04:24.273Z,30.87
2017-07-22T03:06:50.221Z,17.00
2017-07-22T03:09:16.136Z,35.23
2017-07-22T03:11:42.096Z,22.13
2017-07-22T03:14:08.041Z,18.77
2017-07-22T03:16:34.731Z,17.73
2017-07-22T03:19:00.633Z,11.73
2017-07-22T03:21:26.612Z,13.20
2017-07-22T03:23:52.528Z,26.73
2017-07-22T03:26:18.451Z,17.37
2017-07-22T03:28:44.353Z,15.00
2017-07-22T03:31:10.272Z,13.10
2017-07-22T03:33:36.207Z,16.93
2017-07-22T03:36:02.130Z,15.70
2017-07-22T03:38:28.041Z,15.93
2017-07-22T03:40:54.704Z,13.27
2017-07-22T03:43:20.601Z,10.80
2017-07-22T03:45:47.279Z,10.33
2017-07-22T03:48:13.234Z,10.17
2017-07-22T03:50:39.236Z,12.23
2017-07-22T03:53:05.221Z,20.00
2017-07-22T03:55:31.916Z,12.57
2017-07-22T03:57:57.824Z,10.33
2017-07-22T04:00:23.756Z,13.27
2017-07-22T04:02:49.673Z,12.10
2017-07-22T04:05:15.652Z,10.37
2017-07-22T04:07:41.590Z,15.53
2017-07-22T04:10:07.621Z,12.90
2017-07-22T04:12:33.638Z,15.40
2017-07-22T04:14:59.570Z,17.13
2017-07-22T04:17:25.486Z,11.83
2017-07-22T04:19:51.421Z,15.70
2017-07-22T04:22:17.338Z,16.43
2017-07-22T04:24:43.253Z,14.00
2017-07-22T04:27:09.245Z,14.47
2017-07-22T04:29:40.714Z,13.07
2017-07-22T04:32:06.669Z,13.70
2017-07-22T04:34:32.580Z,14.40
2017-07-22T04:36:58.514Z,19.43
2017-07-22T04:39:24.446Z,18.53
2017-07-22T04:41:50.378Z,17.53
2017-07-22T04:44:16.314Z,17.43
2017-07-22T04:46:42.267Z,23.63
2017-07-22T04:49:08.191Z,22.40
2017-07-22T04:51:34.202Z,21.77
2017-07-22T04:54:00.152Z,21.03
2017-07-22T04:56:26.160Z,18.70
2017-07-22T04:58:52.117Z,18.00
2017-07-22T05:01:18.773Z,25.30
2017-07-22T05:03:44.712Z,24.63
2017-07-22T05:06:10.621Z,15.33
2017-07-22T05:08:37.365Z,15.17
2017-07-22T05:11:04.053Z,30.20
2017-07-22T05:13:29.972Z,23.07
2017-07-22T05:15:55.889Z,17.40
2017-07-22T05:18:21.816Z,21.27
2017-07-22T05:20:47.740Z,22.03
2017-07-22T05:23:13.649Z,21.73
2017-07-22T05:25:40.323Z,21.93
2017-07-22T05:28:06.263Z,23.07
2017-07-22T05:30:32.221Z,25.67
2017-07-22T05:32:58.154Z,22.00
2017-07-22T05:35:24.118Z,26.63
2017-07-22T05:37:50.779Z,26.60
2017-07-22T05:40:16.702Z,22.00
2017-07-22T05:42:42.597Z,21.30
2017-07-22T05:45:09.254Z,29.93
2017-07-22T05:47:35.195Z,21.20
2017-07-22T05:50:01.150Z,27.87
2017-07-22T05:52:27.065Z,30.67
2017-07-22T05:54:52.993Z,22.40
2017-07-22T05:57:18.947Z,22.50
2017-07-22T05:59:44.874Z,25.70
2017-07-22T06:02:10.833Z,27.43
2017-07-22T06:04:37.517Z,21.53
2017-07-22T06:07:03.441Z,29.00
2017-07-22T06:09:29.398Z,23.03
2017-07-22T06:11:55.314Z,30.83
2017-07-22T06:14:21.264Z,31.00
2017-07-22T06:16:47.242Z,31.00
2017-07-22T06:19:13.177Z,27.50
2017-07-22T06:21:39.153Z,41.30
2017-07-22T06:24:05.197Z,31.40
2017-07-22T06:26:31.136Z,46.73
2017-07-22T06:28:57.094Z,30.80
2017-07-22T06:31:23.014Z,33.53
2017-07-22T06:33:48.937Z,38.70
2017-07-22T06:36:16.985Z,38.67
2017-07-22T06:38:43.709Z,32.43
2017-07-22T06:41:09.657Z,26.17
2017-07-22T06:43:36.326Z,23.57
2017-07-22T06:46:02.282Z,27.93
2017-07-22T06:48:28.198Z,24.10
2017-07-22T06:50:54.130Z,24.60
2017-07-22T06:53:20.033Z,20.60
2017-07-22T06:55:45.937Z,24.27
2017-07-22T06:58:12.601Z,18.83
2017-07-22T07:00:38.510Z,17.13
2017-07-22T07:03:05.222Z,15.57
2017-07-22T07:05:31.122Z,18.73
2017-07-22T07:07:57.083Z,21.97
2017-07-22T07:10:23.037Z,18.80
2017-07-22T07:12:48.953Z,15.10
2017-07-22T07:15:15.621Z,17.30
2017-07-22T07:17:41.614Z,12.90
2017-07-22T07:20:07.541Z,13.20
2017-07-22T07:22:33.466Z,15.40
2017-07-22T07:24:59.414Z,14.23
2017-07-22T07:27:26.070Z,16.77
2017-07-22T07:29:52.732Z,15.67
2017-07-22T07:32:18.660Z,15.73
2017-07-22T07:34:44.587Z,13.37
2017-07-22T07:37:11.597Z,15.10
2017-07-22T07:39:37.515Z,18.33
2017-07-22T07:42:03.454Z,11.53
2017-07-22T07:44:30.181Z,11.27
2017-07-22T07:46:56.128Z,17.83
2017-07-22T07:49:23.351Z,8.83
2017-07-22T07:51:49.281Z,10.30
2017-07-22T07:54:15.218Z,10.03
2017-07-22T07:56:41.261Z,11.10
2017-07-22T07:59:07.280Z,18.53
2017-07-22T08:01:33.213Z,12.63
2017-07-22T08:04:06.253Z,9.73
2017-07-22T08:06:32.183Z,12.70
2017-07-22T08:08:58.127Z,9.60
2017-07-22T08:11:24.066Z,10.40
2017-07-22T08:13:50.010Z,7.87
2017-07-22T08:16:15.954Z,9.53
2017-07-22T08:18:42.620Z,8.87
2017-07-22T08:21:09.764Z,8.00
2017-07-22T08:23:35.760Z,6.17
2017-07-22T08:26:01.673Z,7.00
2017-07-22T08:28:27.665Z,7.77
2017-07-22T08:30:53.602Z,6.70
2017-07-22T08:33:20.513Z,6.37
2017-07-22T08:35:47.281Z,5.87
2017-07-22T08:38:13.225Z,9.73
2017-07-22T08:40:39.176Z,15.20
2017-07-22T08:43:16.831Z,6.47
2017-07-22T08:45:43.536Z,7.07
2017-07-22T08:48:09.477Z,10.83
2017-07-22T08:50:36.181Z,5.93
2017-07-22T08:53:02.105Z,4.40
2017-07-22T08:55:28.029Z,6.57
2017-07-22T08:57:53.969Z,4.00
2017-07-22T09:00:19.922Z,7.10
2017-07-22T09:02:45.838Z,7.60
2017-07-22T09:05:11.774Z,5.93
2017-07-22T09:07:37.697Z,4.57
2017-07-22T09:10:03.755Z,4.57
2017-07-22T09:12:30.433Z,9.33
2017-07-22T09:14:56.374Z,5.90
2017-07-22T09:17:22.299Z,4.80
2017-07-22T09:19:48.282Z,4.20
2017-07-22T09:22:15.035Z,3.90
2017-07-22T09:24:40.981Z,5.63
2017-07-22T09:27:06.910Z,9.20
2017-07-22T09:29:32.858Z,4.87
2017-07-22T09:31:58.833Z,5.43
2017-07-22T09:34:25.489Z,4.43
2017-07-22T09:36:51.438Z,5.23
2017-07-22T09:39:17.369Z,6.33
2017-07-22T09:41:43.928Z,6.47
2017-07-22T09:44:09.864Z,16.77
2017-07-22T09:46:35.853Z,5.00
2017-07-22T09:49:01.810Z,7.10
2017-07-22T09:51:27.733Z,5.97
2017-07-22T09:53:53.681Z,7.90
2017-07-22T09:56:19.630Z,7.23
2017-07-22T09:58:46.293Z,10.53
2017-07-22T10:01:12.930Z,6.07
2017-07-22T10:03:39.598Z,12.07
2017-07-22T10:06:05.574Z,16.23
2017-07-22T10:08:31.498Z,6.30
2017-07-22T10:11:19.029Z,6.50
2017-07-22T10:13:44.977Z,5.97
2017-07-22T10:16:17.672Z,8.23
2017-07-22T10:18:44.675Z,6.37
2017-07-22T10:21:14.296Z,8.90
2017-07-22T10:23:42.262Z,7.63
2017-07-22T10:26:10.283Z,7.63
2017-07-22T10:28:37.297Z,8.13
2017-07-22T10:31:03.282Z,9.77
2017-07-22T10:33:31.190Z,13.90
2017-07-22T10:35:58.110Z,7.70
2017-07-22T10:38:24.103Z,12.03
2017-07-22T10:40:52.048Z,7.60
2017-07-22T10:43:18.069Z,7.17
2017-07-22T10:45:43.997Z,6.80
2017-07-22T10:48:09.941Z,6.50
2017-07-22T10:50:37.708Z,8.10
2017-07-22T10:53:06.440Z,8.00
2017-07-22T10:55:34.512Z,12.53
2017-07-22T10:58:10.654Z,6.93
2017-07-22T11:00:37.334Z,8.53
2017-07-22T11:03:03.299Z,13.43
2017-07-22T11:05:29.375Z,8.47
2017-07-22T11:07:56.417Z,11.33
2017-07-22T11:10:26.036Z,8.23
2017-07-22T11:12:56.241Z,8.80
2017-07-22T11:15:33.671Z,7.43
2017-07-22T11:18:04.049Z,8.10
2017-07-22T11:20:31.852Z,10.30
2017-07-22T11:22:59.864Z,10.53
2017-07-22T11:25:29.925Z,11.13
2017-07-22T11:28:00.244Z,10.43
2017-07-22T11:30:30.612Z,7.63
2017-07-22T11:32:56.648Z,10.93
2017-07-22T11:35:22.589Z,13.20
2017-07-22T11:37:55.456Z,10.07
2017-07-22T11:40:21.473Z,20.60
2017-07-22T11:42:55.266Z,15.30
2017-07-22T11:45:30.520Z,12.73
2017-07-22T11:48:01.865Z,17.20
2017-07-22T11:50:28.895Z,14.50
2017-07-22T11:52:55.625Z,18.80
2017-07-22T11:55:21.672Z,18.70
2017-07-22T11:57:52.092Z,16.17
2017-07-22T12:00:20.827Z,12.90
2017-07-22T12:02:46.813Z,10.73
2017-07-22T12:05:31.937Z,7.73
2017-07-22T12:08:01.475Z,8.30
2017-07-22T12:10:28.417Z,6.87
2017-07-22T12:13:01.161Z,7.43
2017-07-22T12:15:27.113Z,9.87
2017-07-22T12:18:00.870Z,7.43
2017-07-22T12:20:34.283Z,14.10
2017-07-22T12:23:07.461Z,6.57
2017-07-22T12:25:36.274Z,6.30
2017-07-22T12:28:15.295Z,5.10
2017-07-22T12:30:55.565Z,4.30
2017-07-22T12:33:34.066Z,7.20
2017-07-22T12:36:06.445Z,4.97
2017-07-22T12:41:26.201Z,3.83
2017-07-22T12:44:03.309Z,3.73
2017-07-22T12:46:41.702Z,3.50
2017-07-22T12:49:19.216Z,2.83
2017-07-22T12:51:57.525Z,6.77
2017-07-22T12:54:30.930Z,3.00
2017-07-22T12:57:03.193Z,2.63
2017-07-22T12:59:29.146Z,3.37
2017-07-22T13:02:16.688Z,9.13
2017-07-22T13:04:47.247Z,4.43
2017-07-22T13:07:21.373Z,8.13
2017-07-22T13:10:08.659Z,4.00
2017-07-22T13:12:34.684Z,6.37
2017-07-22T13:15:00.755Z,5.50
2017-07-22T13:17:33.626Z,4.93
2017-07-22T13:20:12.141Z,8.03
2017-07-22T13:22:46.465Z,4.27
2017-07-22T13:28:14.171Z,5.07
2017-07-22T13:33:33.301Z,9.03
2017-07-22T13:36:03.334Z,4.67
2017-07-22T13:41:36.367Z,5.93
2017-07-22T13:44:12.809Z,5.27
2017-07-22T13:46:47.132Z,6.07
2017-07-22T13:49:21.648Z,4.90
2017-07-22T13:51:54.086Z,5.50
2017-07-22T13:54:30.353Z,10.70
2017-07-22T13:57:01.746Z,8.40
2017-07-22T13:59:35.878Z,8.40
2017-07-22T14:02:12.354Z,7.80
2017-07-22T14:04:45.701Z,9.23
2017-07-22T14:07:18.918Z,6.30
2017-07-22T14:09:53.225Z,5.50
2017-07-22T14:12:27.544Z,7.07
2017-07-22T14:15:01.705Z,6.10
2017-07-22T14:17:38.021Z,10.47
2017-07-22T14:20:07.393Z,4.90
2017-07-22T14:22:43.802Z,5.53
2017-07-22T14:25:16.170Z,4.77
2017-07-22T14:27:42.117Z,4.53
2017-07-22T14:30:14.879Z,4.57
2017-07-22T14:33:01.334Z,10.03
2017-07-22T14:35:33.750Z,4.70
2017-07-22T14:37:59.774Z,11.50
2017-07-22T14:40:25.750Z,4.90
2017-07-22T14:42:52.722Z,7.27
2017-07-22T14:45:25.957Z,5.60
2017-07-22T14:48:02.459Z,4.77
2017-07-22T14:50:48.688Z,8.23
2017-07-22T14:53:16.753Z,5.57
2017-07-22T14:56:03.750Z,6.80
2017-07-22T14:58:34.230Z,4.27
2017-07-22T15:01:14.419Z,4.70
2017-07-22T15:03:48.817Z,4.60
2017-07-22T15:06:19.092Z,3.93
2017-07-22T15:08:49.599Z,4.50
2017-07-22T15:11:16.596Z,4.57
2017-07-22T15:14:04.209Z,8.90
2017-07-22T15:16:38.649Z,4.70
2017-07-22T15:19:12.985Z,4.47
2017-07-22T15:21:46.435Z,4.00
2017-07-22T15:24:21.818Z,3.97
2017-07-22T15:26:48.226Z,4.23
2017-07-22T15:29:34.618Z,3.47
2017-07-22T15:32:01.293Z,4.30
2017-07-22T15:37:41.106Z,3.87
2017-07-22T15:40:07.088Z,4.53
2017-07-22T15:42:40.956Z,9.87
2017-07-22T15:45:06.927Z,11.00
2017-07-22T15:47:39.581Z,4.77
2017-07-22T15:50:30.006Z,6.37
2017-07-22T15:53:06.738Z,7.07
2017-07-22T15:55:34.826Z,6.10
2017-07-22T15:58:01.855Z,4.37
2017-07-22T16:00:38.634Z,4.53
2017-07-22T16:03:10.902Z,3.57
2017-07-22T16:08:45.686Z,4.30
2017-07-22T16:11:30.019Z,5.40
2017-07-22T16:14:20.835Z,5.77
2017-07-22T16:17:06.274Z,5.90
2017-07-22T16:19:40.657Z,4.37
2017-07-22T16:22:17.058Z,5.57
2017-07-22T16:27:36.890Z,4.90
2017-07-22T16:30:10.891Z,5.27
2017-07-22T16:32:54.198Z,3.57
2017-07-22T16:35:30.646Z,11.23
2017-07-22T16:38:03.007Z,12.10
2017-07-22T16:40:37.338Z,4.07
2017-07-22T16:43:11.661Z,5.23
2017-07-22T16:45:45.147Z,5.20
2017-07-22T16:48:18.477Z,5.80
2017-07-22T16:50:52.800Z,5.37
2017-07-22T16:53:18.746Z,5.87
2017-07-22T16:55:58.738Z,4.73
2017-07-22T16:58:35.339Z,4.67
2017-07-22T17:01:08.589Z,4.17
2017-07-22T17:03:43.023Z,8.50
2017-07-22T17:06:14.446Z,5.10
2017-07-22T17:08:42.421Z,5.87
2017-07-22T17:11:13.186Z,6.70
2017-07-22T17:13:43.434Z,5.23
2017-07-22T17:16:09.418Z,4.93
2017-07-22T17:18:40.054Z,5.07
2017-07-22T17:21:06.090Z,5.70
2017-07-22T17:23:37.542Z,5.43
2017-07-22T17:26:09.938Z,4.97
2017-07-22T17:29:00.485Z,6.97
2017-07-22T17:34:23.599Z,5.20
2017-07-22T17:36:53.685Z,7.40
2017-07-22T17:39:20.372Z,5.60
2017-07-22T17:41:50.348Z,6.13
2017-07-22T17:44:16.363Z,5.00
2017-07-22T17:46:44.398Z,5.47
2017-07-22T17:49:37.084Z,6.97
2017-07-22T17:52:28.573Z,8.77
2017-07-22T17:55:05.179Z,9.60
2017-07-22T17:57:36.327Z,9.23
2017-07-22T18:00:14.334Z,8.07
2017-07-22T18:02:44.038Z,11.47
2017-07-22T18:05:21.444Z,7.00
2017-07-22T18:07:50.822Z,7.53
2017-07-22T18:10:18.597Z,9.53
2017-07-22T18:13:03.401Z,8.27
2017-07-22T18:15:33.805Z,7.50
2017-07-22T18:18:01.845Z,10.00
2017-07-22T18:26:17.656Z,6.70
2017-07-22T18:28:44.406Z,8.27
2017-07-22T18:31:13.093Z,7.30
2017-07-22T18:33:39.106Z,8.67
2017-07-22T18:36:05.141Z,8.60
2017-07-22T18:38:35.045Z,9.50
2017-07-22T18:41:01.020Z,13.33
2017-07-22T18:43:30.745Z,17.57
2017-07-22T18:45:56.673Z,9.23
2017-07-22T18:48:23.632Z,8.83
2017-07-22T18:50:49.590Z,13.10
2017-07-22T18:53:15.517Z,15.50
2017-07-22T18:55:41.482Z,10.93
2017-07-22T18:58:09.327Z,9.03
2017-07-22T19:00:35.304Z,9.93
2017-07-22T19:03:01.334Z,6.90
2017-07-22T19:05:27.304Z,6.27
2017-07-22T19:07:53.250Z,7.53
2017-07-22T19:10:20.220Z,6.13
2017-07-22T19:12:48.013Z,6.93
2017-07-22T19:15:18.205Z,6.97
2017-07-22T19:17:49.457Z,10.53
2017-07-22T19:20:27.001Z,6.87
2017-07-22T19:22:59.821Z,6.30
2017-07-22T19:25:27.886Z,13.63
2017-07-22T19:28:07.065Z,6.20
2017-07-22T19:30:36.649Z,7.00
2017-07-22T19:33:09.964Z,7.20
2017-07-22T19:35:35.895Z,6.50
2017-07-22T19:38:12.455Z,7.33
2017-07-22T19:40:41.955Z,5.90
2017-07-22T19:43:21.410Z,6.80
2017-07-22T19:46:02.887Z,7.50
2017-07-22T19:48:40.265Z,7.57
2017-07-22T19:51:08.253Z,6.83
2017-07-22T19:53:45.159Z,7.67
2017-07-22T19:56:11.122Z,7.80
2017-07-22T19:58:45.903Z,8.00
2017-07-22T20:01:11.881Z,8.70
2017-07-22T20:03:37.798Z,8.63
2017-07-22T20:06:09.769Z,7.93
2017-07-22T20:08:35.797Z,10.93
2017-07-22T20:11:02.519Z,11.93
2017-07-22T20:13:28.555Z,10.67
2017-07-22T20:15:58.584Z,7.93
2017-07-22T20:18:44.780Z,12.07
2017-07-22T20:21:11.462Z,14.97
2017-07-22T20:23:40.535Z,21.07
2017-07-22T20:26:10.866Z,16.00
2017-07-22T20:28:53.046Z,11.67
2017-07-22T20:31:20.031Z,9.23
2017-07-22T20:33:55.634Z,11.20
2017-07-22T20:39:15.714Z,9.60
2017-07-22T20:41:44.968Z,12.07
2017-07-22T20:44:22.281Z,9.23
2017-07-22T20:46:54.762Z,7.60
2017-07-22T20:49:24.154Z,8.60
2017-07-22T20:51:53.344Z,13.23
2017-07-22T20:54:29.867Z,10.53
2017-07-22T20:56:55.897Z,9.13
2017-07-22T20:59:28.534Z,20.87
2017-07-22T21:02:02.727Z,11.57
2017-07-22T21:04:33.243Z,19.30
2017-07-22T21:07:16.629Z,11.10
2017-07-22T21:09:42.561Z,8.77
2017-07-22T21:12:19.318Z,8.60
2017-07-22T21:15:00.910Z,10.27
2017-07-22T21:17:38.382Z,10.73
2017-07-22T21:20:10.790Z,8.67
2017-07-22T21:22:43.241Z,12.17
2017-07-22T21:25:09.203Z,9.73
2017-07-22T21:27:35.168Z,11.80
2017-07-22T21:30:02.953Z,11.53
2017-07-22T21:32:33.592Z,10.47
2017-07-22T21:34:59.571Z,11.40
2017-07-22T21:37:30.958Z,12.20
2017-07-22T21:42:51.990Z,10.23
2017-07-22T21:45:25.282Z,11.53
2017-07-22T21:47:54.078Z,13.13
2017-07-22T21:50:32.797Z,11.60
2017-07-22T21:52:58.824Z,14.13
2017-07-22T21:55:30.562Z,11.00
2017-07-22T21:58:01.015Z,11.67
2017-07-22T22:00:35.388Z,12.60
2017-07-22T22:03:02.369Z,13.47
2017-07-22T22:05:29.247Z,18.00
2017-07-22T22:07:55.200Z,17.43
2017-07-22T22:10:21.157Z,14.50
2017-07-22T22:12:47.872Z,22.67
2017-07-22T22:15:17.113Z,12.97
2017-07-22T22:17:43.855Z,16.63
2017-07-22T22:20:10.545Z,12.40
2017-07-22T22:22:36.654Z,18.27
2017-07-22T22:25:02.608Z,25.20
2017-07-22T22:27:28.549Z,15.93
2017-07-22T22:30:02.430Z,13.67
2017-07-22T22:32:28.365Z,26.53
2017-07-22T22:34:54.306Z,15.27
2017-07-22T22:37:20.252Z,16.47
2017-07-22T22:39:46.192Z,15.00
2017-07-22T22:42:12.139Z,9.00
2017-07-22T22:44:38.840Z,29.50
2017-07-22T22:47:04.781Z,14.30
2017-07-22T22:49:30.770Z,13.87
2017-07-22T22:51:56.707Z,10.03
2017-07-22T22:54:22.651Z,4.53
2017-07-22T22:56:48.586Z,13.80
2017-07-22T22:59:14.485Z,4.77
2017-07-22T23:01:40.571Z,10.13
2017-07-22T23:04:06.511Z,5.10
2017-07-22T23:06:32.483Z,8.10
2017-07-22T23:09:00.506Z,5.80
2017-07-22T23:11:27.214Z,8.80
2017-07-22T23:13:53.182Z,7.40
2017-07-22T23:16:19.874Z,10.37
2017-07-22T23:18:45.805Z,5.67
2017-07-22T23:21:11.766Z,9.67
2017-07-22T23:23:37.713Z,7.40
2017-07-22T23:26:04.447Z,5.87
2017-07-22T23:28:30.382Z,5.60
2017-07-22T23:30:57.093Z,5.53
2017-07-22T23:33:23.050Z,6.97
2017-07-22T23:35:49.015Z,7.40
2017-07-22T23:38:14.947Z,9.03
2017-07-22T23:40:40.873Z,9.17
2017-07-22T23:43:06.802Z,18.30
2017-07-22T23:45:32.776Z,7.73
2017-07-22T23:47:58.762Z,11.37
2017-07-22T23:50:24.730Z,12.77
2017-07-22T23:52:50.703Z,7.50
2017-07-22T23:55:16.654Z,9.43
2017-07-22T23:57:42.612Z,9.23
